Date,TemperatureHighF,TemperatureAvgF,TemperatureLowF,DewpointHighF,DewpointAvgF,DewpointLowF,HumidityHigh,HumidityAvg,HumidityLow,PressureMaxIn,PressureMinIn,WindSpeedMaxMPH,WindSpeedAvgMPH,GustSpeedMaxMPH,PrecipitationSumIn
2013-3-1,45,40,33,34,31,28,90,72,55,29.62,29.44,12,2,12,0.00
2013-3-2,40,36,31,30,27,25,94,70,59,29.62,29.53,11,3,11,0.00
2013-3-3,40,33,28,29,23,19,92,68,47,29.59,29.49,14,4,14,0.00
2013-3-4,41,33,28,24,21,18,72,61,48,29.74,29.59,22,6,22,0.00
2013-3-5,46,38,31,31,26,22,75,63,49,29.86,29.74,16,2,16,0.00
2013-3-6,42,39,35,37,33,31,90,81,72,29.83,29.69,26,4,26,0.00
2013-3-7,38,34,32,35,32,30,97,92,85,29.91,29.75,17,3,17,0.12
2013-3-8,38,34,31,34,32,29,98,92,71,30.01,29.84,10,1,10,0.12
2013-3-9,50,41,33,34,28,22,93,63,34,30.17,30.01,12,2,12,0.00
2013-3-10,48,38,29,38,33,28,98,85,63,30.24,30.15,8,1,8,0.00
2013-3-11,53,46,38,48,42,35,94,88,72,30.18,29.95,15,1,15,0.00
2013-3-12,54,51,43,53,49,39,98,92,82,29.95,29.53,25,5,25,1.05
2013-3-13,51,43,36,39,32,24,96,68,39,29.73,29.63,12,2,12,0.00
2013-3-14,40,35,29,30,16,8,72,46,29,29.80,29.68,26,7,26,0.00
2013-3-15,46,37,29,32,20,10,69,50,37,29.82,29.56,22,4,22,0.00
2013-3-16,41,35,32,32,27,22,95,75,54,29.75,29.62,13,1,13,0.04
2013-3-17,38,33,29,31,22,14,95,65,43,30.15,29.75,14,2,14,0.02
2013-3-18,37,32,26,32,21,11,96,66,46,30.25,29.88,11,1,11,0.00
2013-3-19,40,36,33,37,34,32,98,94,83,29.87,29.53,16,2,16,0.97
2013-3-20,45,38,32,32,22,18,82,54,36,29.73,29.63,16,4,16,0.00
2013-3-21,37,34,31,28,24,14,84,68,43,29.69,29.48,14,2,15,0.00
2013-3-22,42,35,29,24,19,15,66,52,40,29.72,29.57,16,4,16,0.00
2013-3-23,45,38,33,25,22,19,67,52,39,29.77,29.65,20,5,20,0.00
2013-3-24,47,38,31,29,24,20,70,57,41,29.79,29.56,11,1,11,0.00
2013-3-25,40,36,32,36,30,-100,96,75,1,29.57,29.31,19,-16,19,0.10
2013-3-26,52,41,32,36,32,27,96,69,1,29.70,29.42,11,1,11,0.01
2013-3-27,53,43,34,32,28,22,75,57,32,29.80,29.70,17,3,17,0.00
2013-3-28,51,43,36,39,33,30,84,68,52,29.94,29.80,10,2,10,0.08
2013-3-29,58,47,38,35,31,28,73,55,34,29.98,29.89,14,3,14,0.01
2013-3-30,58,47,37,37,31,21,81,57,27,30.01,29.91,10,2,10,0.00
2013-3-31,54,46,36,45,37,31,97,73,45,29.97,29.50,15,2,15,0.15